sensor_id;sensor_type;location;lat;lon;timestamp;pressure;altitude;pressure_sealevel;temperature;humidity
48718;BME280;34521;33.042;-96.586;2024-01-10T00:01:34;99291.03;;;20.80;20.27
48718;BME280;34521;33.042;-96.586;2024-01-10T00:04:00;99289.68;;;21.25;19.89
48718;BME280;34521;33.042;-96.586;2024-01-10T00:06:24;99293.02;;;21.42;19.79
48718;BME280;34521;33.042;-96.586;2024-01-10T00:08:50;99299.43;;;21.18;20.09
48718;BME280;34521;33.042;-96.586;2024-01-10T00:11:15;99302.83;;;20.99;20.10
48718;BME280;34521;33.042;-96.586;2024-01-10T00:13:40;99294.10;;;21.16;19.89
48718;BME280;34521;33.042;-96.586;2024-01-10T00:16:04;99285.31;;;21.14;19.99
48718;BME280;34521;33.042;-96.586;2024-01-10T00:18:28;99280.70;;;21.05;20.05
48718;BME280;34521;33.042;-96.586;2024-01-10T00:20:53;99291.93;;;21.10;20.21
48718;BME280;34521;33.042;-96.586;2024-01-10T00:23:19;99301.13;;;20.95;20.33
48718;BME280;34521;33.042;-96.586;2024-01-10T00:25:44;99308.74;;;20.67;20.37
48718;BME280;34521;33.042;-96.586;2024-01-10T00:28:10;99313.42;;;20.75;20.28
48718;BME280;34521;33.042;-96.586;2024-01-10T00:30:35;99312.83;;;20.87;20.33
48718;BME280;34521;33.042;-96.586;2024-01-10T00:32:59;99305.19;;;20.79;20.24
48718;BME280;34521;33.042;-96.586;2024-01-10T00:35:25;99302.44;;;20.28;20.05
48718;BME280;34521;33.042;-96.586;2024-01-10T00:37:52;99298.39;;;21.25;19.90
48718;BME280;34521;33.042;-96.586;2024-01-10T00:40:15;99301.96;;;21.16;19.78
48718;BME280;34521;33.042;-96.586;2024-01-10T00:42:40;99306.38;;;21.40;19.89
48718;BME280;34521;33.042;-96.586;2024-01-10T00:45:05;99312.07;;;21.10;19.91
48718;BME280;34521;33.042;-96.586;2024-01-10T00:47:31;99312.89;;;21.33;20.02
48718;BME280;34521;33.042;-96.586;2024-01-10T00:49:55;99309.15;;;21.04;20.02
48718;BME280;34521;33.042;-96.586;2024-01-10T00:52:20;99313.33;;;21.19;20.10
48718;BME280;34521;33.042;-96.586;2024-01-10T00:54:45;99304.59;;;20.91;20.12
48718;BME280;34521;33.042;-96.586;2024-01-10T00:57:12;99306.53;;;20.84;20.14
48718;BME280;34521;33.042;-96.586;2024-01-10T00:59:35;99307.40;;;20.88;20.25
48718;BME280;34521;33.042;-96.586;2024-01-10T01:02:00;99304.54;;;20.55;20.25
48718;BME280;34521;33.042;-96.586;2024-01-10T01:04:25;99307.41;;;20.51;20.04
48718;BME280;34521;33.042;-96.586;2024-01-10T01:06:50;99299.43;;;20.86;20.02
48718;BME280;34521;33.042;-96.586;2024-01-10T01:09:16;99283.05;;;21.44;19.69
48718;BME280;34521;33.042;-96.586;2024-01-10T01:11:41;99284.88;;;20.98;19.93
48718;BME280;34521;33.042;-96.586;2024-01-10T01:14:05;99286.00;;;21.10;20.00
48718;BME280;34521;33.042;-96.586;2024-01-10T01:16:31;99280.17;;;21.02;19.89
48718;BME280;34521;33.042;-96.586;2024-01-10T01:18:55;99284.06;;;20.90;20.19
48718;BME280;34521;33.042;-96.586;2024-01-10T01:21:21;99289.50;;;20.63;20.24
48718;BME280;34521;33.042;-96.586;2024-01-10T01:23:46;99291.08;;;21.09;19.93
48718;BME280;34521;33.042;-96.586;2024-01-10T01:26:13;99279.73;;;21.14;19.66
48718;BME280;34521;33.042;-96.586;2024-01-10T01:28:36;99285.80;;;20.02;20.20
48718;BME280;34521;33.042;-96.586;2024-01-10T01:31:02;99298.64;;;20.91;19.77
48718;BME280;34521;33.042;-96.586;2024-01-10T01:33:27;99293.54;;;21.29;19.69
48718;BME280;34521;33.042;-96.586;2024-01-10T01:35:53;99291.89;;;21.17;19.64
48718;BME280;34521;33.042;-96.586;2024-01-10T01:38:17;99294.07;;;21.67;19.66
48718;BME280;34521;33.042;-96.586;2024-01-10T01:40:41;99296.28;;;21.70;19.72
48718;BME280;34521;33.042;-96.586;2024-01-10T01:43:18;99297.42;;;21.67;19.72
48718;BME280;34521;33.042;-96.586;2024-01-10T01:45:33;99290.77;;;21.86;19.69
48718;BME280;34521;33.042;-96.586;2024-01-10T01:47:58;99293.68;;;22.03;19.69
48718;BME280;34521;33.042;-96.586;2024-01-10T01:50:22;99293.42;;;22.43;19.24
48718;BME280;34521;33.042;-96.586;2024-01-10T01:52:46;99301.79;;;22.32;19.37
48718;BME280;34521;33.042;-96.586;2024-01-10T01:55:12;99306.61;;;22.44;19.32
48718;BME280;34521;33.042;-96.586;2024-01-10T01:57:39;99311.11;;;22.32;19.37
48718;BME280;34521;33.042;-96.586;2024-01-10T02:00:03;99303.61;;;22.10;19.50
48718;BME280;34521;33.042;-96.586;2024-01-10T02:02:28;99304.47;;;22.00;19.59
48718;BME280;34521;33.042;-96.586;2024-01-10T02:04:52;99302.91;;;21.81;19.53
48718;BME280;34521;33.042;-96.586;2024-01-10T02:07:18;99294.45;;;21.78;19.68
48718;BME280;34521;33.042;-96.586;2024-01-10T02:09:43;99294.01;;;21.74;19.70
48718;BME280;34521;33.042;-96.586;2024-01-10T02:12:09;99291.49;;;21.60;19.77
48718;BME280;34521;33.042;-96.586;2024-01-10T02:14:34;99299.49;;;21.40;19.71
48718;BME280;34521;33.042;-96.586;2024-01-10T02:16:58;99308.17;;;21.48;19.74
48718;BME280;34521;33.042;-96.586;2024-01-10T02:19:24;99303.74;;;21.77;19.59
48718;BME280;34521;33.042;-96.586;2024-01-10T02:21:50;99301.84;;;22.02;19.50
48718;BME280;34521;33.042;-96.586;2024-01-10T02:24:14;99293.90;;;21.86;19.47
48718;BME280;34521;33.042;-96.586;2024-01-10T02:26:38;99297.37;;;21.46;19.59
48718;BME280;34521;33.042;-96.586;2024-01-10T02:29:05;99290.99;;;22.02;19.42
48718;BME280;34521;33.042;-96.586;2024-01-10T02:31:31;99285.46;;;21.74;19.65
48718;BME280;34521;33.042;-96.586;2024-01-10T02:33:54;99286.46;;;21.70;19.61
48718;BME280;34521;33.042;-96.586;2024-01-10T02:36:19;99280.69;;;21.55;19.73
48718;BME280;34521;33.042;-96.586;2024-01-10T02:38:46;99286.39;;;21.41;19.62
48718;BME280;34521;33.042;-96.586;2024-01-10T02:41:11;99292.52;;;21.31;19.66
48718;BME280;34521;33.042;-96.586;2024-01-10T02:43:35;99292.80;;;21.87;19.51
48718;BME280;34521;33.042;-96.586;2024-01-10T02:46:00;99293.09;;;21.83;19.43
48718;BME280;34521;33.042;-96.586;2024-01-10T02:48:27;99292.07;;;21.92;19.38
48718;BME280;34521;33.042;-96.586;2024-01-10T02:50:51;99290.84;;;21.59;19.61
48718;BME280;34521;33.042;-96.586;2024-01-10T02:53:17;99286.64;;;21.43;19.81
48718;BME280;34521;33.042;-96.586;2024-01-10T02:55:44;99289.46;;;21.47;19.76
48718;BME280;34521;33.042;-96.586;2024-01-10T02:58:07;99292.23;;;21.49;19.54
48718;BME280;34521;33.042;-96.586;2024-01-10T03:00:34;99294.54;;;21.69;19.64
48718;BME280;34521;33.042;-96.586;2024-01-10T03:02:59;99300.95;;;21.61;19.63
48718;BME280;34521;33.042;-96.586;2024-01-10T03:05:25;99305.85;;;21.44;19.66
48718;BME280;34521;33.042;-96.586;2024-01-10T03:07:49;99299.67;;;21.30;19.56
48718;BME280;34521;33.042;-96.586;2024-01-10T03:10:15;99296.09;;;21.55;19.47
48718;BME280;34521;33.042;-96.586;2024-01-10T03:12:40;99289.00;;;21.51;19.46
48718;BME280;34521;33.042;-96.586;2024-01-10T03:15:06;99277.21;;;21.15;19.67
48718;BME280;34521;33.042;-96.586;2024-01-10T03:17:32;99276.18;;;21.10;19.82
48718;BME280;34521;33.042;-96.586;2024-01-10T03:19:57;99283.22;;;20.84;19.95
48718;BME280;34521;33.042;-96.586;2024-01-10T03:22:21;99278.49;;;20.39;20.11
48718;BME280;34521;33.042;-96.586;2024-01-10T03:24:47;99276.89;;;20.67;19.83
48718;BME280;34521;33.042;-96.586;2024-01-10T03:27:12;99276.84;;;20.33;20.06
48718;BME280;34521;33.042;-96.586;2024-01-10T03:29:37;99271.43;;;20.68;19.93
48718;BME280;34521;33.042;-96.586;2024-01-10T03:32:03;99274.56;;;20.30;20.24
48718;BME280;34521;33.042;-96.586;2024-01-10T03:34:28;99271.72;;;20.23;20.05
48718;BME280;34521;33.042;-96.586;2024-01-10T03:36:55;99263.71;;;20.40;20.11
48718;BME280;34521;33.042;-96.586;2024-01-10T03:39:18;99258.25;;;20.66;19.63
48718;BME280;34521;33.042;-96.586;2024-01-10T03:41:45;99260.33;;;21.22;19.45
48718;BME280;34521;33.042;-96.586;2024-01-10T03:44:09;99259.03;;;20.74;19.82
48718;BME280;34521;33.042;-96.586;2024-01-10T03:46:34;99254.98;;;21.06;19.59
48718;BME280;34521;33.042;-96.586;2024-01-10T03:48:59;99258.41;;;21.46;19.56
48718;BME280;34521;33.042;-96.586;2024-01-10T03:51:27;99262.11;;;21.06;19.46
48718;BME280;34521;33.042;-96.586;2024-01-10T03:53:50;99266.48;;;21.18;19.31
48718;BME280;34521;33.042;-96.586;2024-01-10T03:56:17;99262.87;;;21.33;19.32
48718;BME280;34521;33.042;-96.586;2024-01-10T03:58:41;99256.94;;;21.08;19.42
48718;BME280;34521;33.042;-96.586;2024-01-10T04:01:08;99256.16;;;20.78;19.73
48718;BME280;34521;33.042;-96.586;2024-01-10T04:03:33;99255.45;;;20.35;19.82
48718;BME280;34521;33.042;-96.586;2024-01-10T04:05:59;99253.03;;;20.85;19.47
48718;BME280;34521;33.042;-96.586;2024-01-10T04:08:24;99251.78;;;20.87;19.47
48718;BME280;34521;33.042;-96.586;2024-01-10T04:10:49;99249.37;;;21.60;19.14
48718;BME280;34521;33.042;-96.586;2024-01-10T04:13:16;99253.46;;;21.01;19.77
48718;BME280;34521;33.042;-96.586;2024-01-10T04:15:41;99259.51;;;20.94;19.70
48718;BME280;34521;33.042;-96.586;2024-01-10T04:18:05;99260.31;;;21.08;19.51
48718;BME280;34521;33.042;-96.586;2024-01-10T04:20:31;99261.39;;;21.09;19.44
48718;BME280;34521;33.042;-96.586;2024-01-10T04:22:55;99269.07;;;20.60;19.56
48718;BME280;34521;33.042;-96.586;2024-01-10T04:25:20;99271.38;;;20.82;19.61
48718;BME280;34521;33.042;-96.586;2024-01-10T04:27:45;99267.41;;;20.47;19.70
48718;BME280;34521;33.042;-96.586;2024-01-10T04:30:12;99268.45;;;20.47;19.69
48718;BME280;34521;33.042;-96.586;2024-01-10T04:32:37;99270.24;;;20.81;19.40
48718;BME280;34521;33.042;-96.586;2024-01-10T04:35:03;99265.07;;;21.19;19.34
48718;BME280;34521;33.042;-96.586;2024-01-10T04:37:29;99265.56;;;21.06;19.52
48718;BME280;34521;33.042;-96.586;2024-01-10T04:39:55;99258.96;;;21.35;19.30
48718;BME280;34521;33.042;-96.586;2024-01-10T04:42:20;99257.20;;;21.44;19.19
48718;BME280;34521;33.042;-96.586;2024-01-10T04:44:46;99252.61;;;21.55;19.23
48718;BME280;34521;33.042;-96.586;2024-01-10T04:47:12;99252.97;;;21.74;19.15
48718;BME280;34521;33.042;-96.586;2024-01-10T04:49:35;99259.94;;;21.75;19.09
48718;BME280;34521;33.042;-96.586;2024-01-10T04:52:01;99261.85;;;21.89;19.01
48718;BME280;34521;33.042;-96.586;2024-01-10T04:54:26;99257.22;;;22.02;19.07
48718;BME280;34521;33.042;-96.586;2024-01-10T04:56:51;99247.57;;;22.19;19.04
48718;BME280;34521;33.042;-96.586;2024-01-10T04:59:17;99248.06;;;22.02;18.99
48718;BME280;34521;33.042;-96.586;2024-01-10T05:01:43;99252.01;;;22.20;18.93
48718;BME280;34521;33.042;-96.586;2024-01-10T05:04:09;99247.68;;;22.01;19.04
48718;BME280;34521;33.042;-96.586;2024-01-10T05:06:33;99242.35;;;21.90;19.21
48718;BME280;34521;33.042;-96.586;2024-01-10T05:08:59;99236.71;;;21.80;19.26
48718;BME280;34521;33.042;-96.586;2024-01-10T05:11:28;99240.85;;;21.71;19.28
48718;BME280;34521;33.042;-96.586;2024-01-10T05:13:50;99237.98;;;21.85;19.22
48718;BME280;34521;33.042;-96.586;2024-01-10T05:16:16;99237.37;;;22.11;19.10
48718;BME280;34521;33.042;-96.586;2024-01-10T05:18:40;99241.15;;;22.08;19.17
48718;BME280;34521;33.042;-96.586;2024-01-10T05:21:06;99235.47;;;21.64;19.34
48718;BME280;34521;33.042;-96.586;2024-01-10T05:23:33;99233.57;;;21.71;19.27
48718;BME280;34521;33.042;-96.586;2024-01-10T05:25:57;99231.56;;;21.63;19.27
48718;BME280;34521;33.042;-96.586;2024-01-10T05:28:23;99234.59;;;21.62;19.32
48718;BME280;34521;33.042;-96.586;2024-01-10T05:30:48;99233.59;;;21.29;19.29
48718;BME280;34521;33.042;-96.586;2024-01-10T05:33:14;99234.91;;;21.25;19.46
48718;BME280;34521;33.042;-96.586;2024-01-10T05:35:40;99235.18;;;21.42;19.21
48718;BME280;34521;33.042;-96.586;2024-01-10T05:38:05;99234.85;;;21.16;19.41
48718;BME280;34521;33.042;-96.586;2024-01-10T05:40:30;99239.12;;;21.69;19.04
48718;BME280;34521;33.042;-96.586;2024-01-10T05:42:55;99239.42;;;21.67;19.12
48718;BME280;34521;33.042;-96.586;2024-01-10T05:45:20;99243.53;;;21.93;18.99
48718;BME280;34521;33.042;-96.586;2024-01-10T05:47:48;99242.68;;;21.80;19.16
48718;BME280;34521;33.042;-96.586;2024-01-10T05:50:12;99235.23;;;21.18;19.35
48718;BME280;34521;33.042;-96.586;2024-01-10T05:52:39;99229.25;;;21.34;19.41
48718;BME280;34521;33.042;-96.586;2024-01-10T05:55:03;99230.21;;;21.57;19.26
48718;BME280;34521;33.042;-96.586;2024-01-10T05:57:28;99223.03;;;21.43;19.29
48718;BME280;34521;33.042;-96.586;2024-01-10T05:59:55;99225.23;;;21.42;19.24
48718;BME280;34521;33.042;-96.586;2024-01-10T06:02:20;99227.24;;;21.65;19.22
48718;BME280;34521;33.042;-96.586;2024-01-10T06:04:44;99227.99;;;21.38;19.17
48718;BME280;34521;33.042;-96.586;2024-01-10T06:07:10;99230.03;;;21.88;19.07
48718;BME280;34521;33.042;-96.586;2024-01-10T06:09:36;99222.44;;;21.63;19.12
48718;BME280;34521;33.042;-96.586;2024-01-10T06:12:00;99212.30;;;21.90;19.18
48718;BME280;34521;33.042;-96.586;2024-01-10T06:14:26;99213.54;;;21.31;19.43
48718;BME280;34521;33.042;-96.586;2024-01-10T06:16:52;99219.64;;;21.80;19.20
48718;BME280;34521;33.042;-96.586;2024-01-10T06:19:17;99225.33;;;21.68;19.07
48718;BME280;34521;33.042;-96.586;2024-01-10T06:21:45;99221.74;;;21.36;19.23
48718;BME280;34521;33.042;-96.586;2024-01-10T06:24:08;99218.96;;;21.42;19.35
48718;BME280;34521;33.042;-96.586;2024-01-10T06:26:33;99227.13;;;21.71;19.17
48718;BME280;34521;33.042;-96.586;2024-01-10T06:28:59;99225.81;;;21.72;19.04
48718;BME280;34521;33.042;-96.586;2024-01-10T06:31:25;99224.99;;;21.71;18.99
48718;BME280;34521;33.042;-96.586;2024-01-10T06:33:50;99220.09;;;21.92;19.04
48718;BME280;34521;33.042;-96.586;2024-01-10T06:36:16;99220.70;;;21.38;19.29
48718;BME280;34521;33.042;-96.586;2024-01-10T06:38:41;99217.94;;;21.51;19.12
48718;BME280;34521;33.042;-96.586;2024-01-10T06:41:08;99217.44;;;21.54;19.11
48718;BME280;34521;33.042;-96.586;2024-01-10T06:43:32;99223.62;;;21.47;19.10
48718;BME280;34521;33.042;-96.586;2024-01-10T06:45:57;99223.97;;;20.99;19.28
48718;BME280;34521;33.042;-96.586;2024-01-10T06:48:24;99225.27;;;21.63;18.88
48718;BME280;34521;33.042;-96.586;2024-01-10T06:50:48;99227.90;;;21.80;18.85
48718;BME280;34521;33.042;-96.586;2024-01-10T06:53:15;99230.68;;;21.93;18.80
48718;BME280;34521;33.042;-96.586;2024-01-10T06:55:40;99224.94;;;21.80;19.01
48718;BME280;34521;33.042;-96.586;2024-01-10T06:58:05;99223.07;;;21.28;19.29
48718;BME280;34521;33.042;-96.586;2024-01-10T07:00:30;99221.89;;;21.60;19.04
48718;BME280;34521;33.042;-96.586;2024-01-10T07:02:54;99220.33;;;21.58;19.05
48718;BME280;34521;33.042;-96.586;2024-01-10T07:05:20;99214.41;;;20.95;19.18
48718;BME280;34521;33.042;-96.586;2024-01-10T07:07:47;99217.30;;;21.62;18.93
48718;BME280;34521;33.042;-96.586;2024-01-10T07:10:11;99212.10;;;21.63;18.94
48718;BME280;34521;33.042;-96.586;2024-01-10T07:12:37;99212.13;;;21.63;18.92
48718;BME280;34521;33.042;-96.586;2024-01-10T07:15:03;99213.74;;;21.45;19.19
48718;BME280;34521;33.042;-96.586;2024-01-10T07:17:30;99216.74;;;21.27;19.07
48718;BME280;34521;33.042;-96.586;2024-01-10T07:19:55;99211.53;;;21.57;19.00
48718;BME280;34521;33.042;-96.586;2024-01-10T07:22:19;99215.62;;;21.16;19.17
48718;BME280;34521;33.042;-96.586;2024-01-10T07:24:44;99220.01;;;21.98;18.89
48718;BME280;34521;33.042;-96.586;2024-01-10T07:27:11;99219.90;;;21.90;18.76
48718;BME280;34521;33.042;-96.586;2024-01-10T07:29:35;99212.72;;;21.54;19.06
48718;BME280;34521;33.042;-96.586;2024-01-10T07:32:00;99216.44;;;21.44;19.16
48718;BME280;34521;33.042;-96.586;2024-01-10T07:34:25;99211.82;;;21.72;18.85
48718;BME280;34521;33.042;-96.586;2024-01-10T07:36:54;99206.24;;;21.37;18.86
48718;BME280;34521;33.042;-96.586;2024-01-10T07:39:15;99210.98;;;21.78;18.83
48718;BME280;34521;33.042;-96.586;2024-01-10T07:41:41;99214.47;;;21.66;18.77
48718;BME280;34521;33.042;-96.586;2024-01-10T07:44:07;99215.60;;;22.06;18.64
48718;BME280;34521;33.042;-96.586;2024-01-10T07:46:34;99214.98;;;21.49;19.01
48718;BME280;34521;33.042;-96.586;2024-01-10T07:48:59;99209.80;;;21.72;18.90
48718;BME280;34521;33.042;-96.586;2024-01-10T07:51:23;99202.97;;;21.53;18.92
48718;BME280;34521;33.042;-96.586;2024-01-10T07:53:49;99200.98;;;21.50;18.90
48718;BME280;34521;33.042;-96.586;2024-01-10T07:56:15;99198.46;;;21.68;18.78
48718;BME280;34521;33.042;-96.586;2024-01-10T07:58:40;99197.89;;;22.10;18.60
48718;BME280;34521;33.042;-96.586;2024-01-10T08:01:06;99200.32;;;21.57;19.13
48718;BME280;34521;33.042;-96.586;2024-01-10T08:03:30;99195.71;;;21.72;18.77
48718;BME280;34521;33.042;-96.586;2024-01-10T08:05:56;99197.01;;;21.60;18.73
48718;BME280;34521;33.042;-96.586;2024-01-10T08:08:23;99197.57;;;21.91;18.72
48718;BME280;34521;33.042;-96.586;2024-01-10T08:10:46;99190.50;;;21.73;18.74
48718;BME280;34521;33.042;-96.586;2024-01-10T08:13:13;99188.71;;;22.02;18.63
48718;BME280;34521;33.042;-96.586;2024-01-10T08:15:38;99184.25;;;21.17;19.11
48718;BME280;34521;33.042;-96.586;2024-01-10T08:18:03;99180.28;;;21.45;18.97
48718;BME280;34521;33.042;-96.586;2024-01-10T08:20:28;99181.00;;;21.70;18.87
48718;BME280;34521;33.042;-96.586;2024-01-10T08:22:54;99183.73;;;21.64;18.74
48718;BME280;34521;33.042;-96.586;2024-01-10T08:25:20;99183.16;;;21.84;18.73
48718;BME280;34521;33.042;-96.586;2024-01-10T08:27:46;99182.90;;;21.65;18.68
48718;BME280;34521;33.042;-96.586;2024-01-10T08:30:10;99187.28;;;21.87;18.59
48718;BME280;34521;33.042;-96.586;2024-01-10T08:32:37;99183.81;;;21.91;18.83
48718;BME280;34521;33.042;-96.586;2024-01-10T08:35:01;99172.64;;;21.63;18.91
48718;BME280;34521;33.042;-96.586;2024-01-10T08:37:27;99170.05;;;21.48;18.86
48718;BME280;34521;33.042;-96.586;2024-01-10T08:39:54;99171.31;;;21.10;19.03
48718;BME280;34521;33.042;-96.586;2024-01-10T08:42:20;99175.33;;;21.98;18.80
48718;BME280;34521;33.042;-96.586;2024-01-10T08:44:45;99176.25;;;21.89;18.60
48718;BME280;34521;33.042;-96.586;2024-01-10T08:47:11;99165.89;;;21.86;18.84
48718;BME280;34521;33.042;-96.586;2024-01-10T08:49:36;99165.60;;;21.45;18.93
48718;BME280;34521;33.042;-96.586;2024-01-10T08:52:00;99166.50;;;21.37;18.69
48718;BME280;34521;33.042;-96.586;2024-01-10T08:54:25;99157.78;;;21.69;18.64
48718;BME280;34521;33.042;-96.586;2024-01-10T08:56:50;99151.08;;;21.70;18.64
48718;BME280;34521;33.042;-96.586;2024-01-10T08:59:18;99148.29;;;21.76;18.72
48718;BME280;34521;33.042;-96.586;2024-01-10T09:01:42;99144.28;;;21.62;18.78
48718;BME280;34521;33.042;-96.586;2024-01-10T09:04:06;99142.21;;;21.55;18.79
48718;BME280;34521;33.042;-96.586;2024-01-10T09:06:34;99140.27;;;21.46;18.84
48718;BME280;34521;33.042;-96.586;2024-01-10T09:08:58;99137.68;;;21.85;18.64
48718;BME280;34521;33.042;-96.586;2024-01-10T09:11:24;99130.04;;;21.84;18.62
48718;BME280;34521;33.042;-96.586;2024-01-10T09:13:49;99118.14;;;21.31;18.94
48718;BME280;34521;33.042;-96.586;2024-01-10T09:16:14;99107.74;;;21.53;18.75
48718;BME280;34521;33.042;-96.586;2024-01-10T09:18:42;99106.68;;;21.67;18.74
48718;BME280;34521;33.042;-96.586;2024-01-10T09:21:06;99110.84;;;21.60;18.74
48718;BME280;34521;33.042;-96.586;2024-01-10T09:23:31;99114.64;;;21.44;18.70
48718;BME280;34521;33.042;-96.586;2024-01-10T09:25:57;99116.93;;;21.76;18.54
48718;BME280;34521;33.042;-96.586;2024-01-10T09:28:22;99120.62;;;21.67;18.68
48718;BME280;34521;33.042;-96.586;2024-01-10T09:30:48;99123.40;;;21.42;18.81
48718;BME280;34521;33.042;-96.586;2024-01-10T09:33:13;99119.26;;;21.65;18.61
48718;BME280;34521;33.042;-96.586;2024-01-10T09:35:40;99121.02;;;21.62;18.72
48718;BME280;34521;33.042;-96.586;2024-01-10T09:38:04;99115.21;;;21.54;18.56
48718;BME280;34521;33.042;-96.586;2024-01-10T09:40:29;99114.49;;;21.78;18.50
48718;BME280;34521;33.042;-96.586;2024-01-10T09:42:56;99114.93;;;21.79;18.58
48718;BME280;34521;33.042;-96.586;2024-01-10T09:45:22;99114.87;;;21.73;18.79
48718;BME280;34521;33.042;-96.586;2024-01-10T09:47:52;99106.58;;;21.46;18.69
48718;BME280;34521;33.042;-96.586;2024-01-10T09:50:11;99098.26;;;21.48;18.69
48718;BME280;34521;33.042;-96.586;2024-01-10T09:52:41;99098.67;;;21.02;18.92
48718;BME280;34521;33.042;-96.586;2024-01-10T09:55:03;99090.17;;;21.53;18.50
48718;BME280;34521;33.042;-96.586;2024-01-10T09:57:28;99088.68;;;21.80;18.47
48718;BME280;34521;33.042;-96.586;2024-01-10T09:59:53;99093.57;;;21.96;18.38
48718;BME280;34521;33.042;-96.586;2024-01-10T10:02:19;99097.26;;;21.43;18.74
48718;BME280;34521;33.042;-96.586;2024-01-10T10:04:49;99098.82;;;21.17;18.77
48718;BME280;34521;33.042;-96.586;2024-01-10T10:07:09;99100.00;;;21.46;18.66
48718;BME280;34521;33.042;-96.586;2024-01-10T10:09:34;99099.31;;;21.84;18.59
48718;BME280;34521;33.042;-96.586;2024-01-10T10:12:01;99096.61;;;22.01;18.45
48718;BME280;34521;33.042;-96.586;2024-01-10T10:14:30;99094.93;;;22.11;18.58
48718;BME280;34521;33.042;-96.586;2024-01-10T10:16:52;99095.11;;;21.60;18.67
48718;BME280;34521;33.042;-96.586;2024-01-10T10:19:22;99098.93;;;21.90;18.61
48718;BME280;34521;33.042;-96.586;2024-01-10T10:21:43;99092.56;;;21.62;18.54
48718;BME280;34521;33.042;-96.586;2024-01-10T10:24:10;99095.79;;;21.49;18.61
48718;BME280;34521;33.042;-96.586;2024-01-10T10:26:35;99097.41;;;21.36;18.59
48718;BME280;34521;33.042;-96.586;2024-01-10T10:29:00;99088.53;;;21.69;18.45
48718;BME280;34521;33.042;-96.586;2024-01-10T10:31:26;99078.74;;;22.13;18.31
48718;BME280;34521;33.042;-96.586;2024-01-10T10:33:52;99076.53;;;21.79;18.50
48718;BME280;34521;33.042;-96.586;2024-01-10T10:36:16;99075.81;;;21.17;18.92
48718;BME280;34521;33.042;-96.586;2024-01-10T10:38:43;99077.54;;;21.27;18.75
48718;BME280;34521;33.042;-96.586;2024-01-10T10:41:09;99078.15;;;21.32;18.76
48718;BME280;34521;33.042;-96.586;2024-01-10T10:43:34;99075.14;;;21.57;18.50
48718;BME280;34521;33.042;-96.586;2024-01-10T10:45:58;99065.51;;;22.03;18.40
48718;BME280;34521;33.042;-96.586;2024-01-10T10:48:25;99065.24;;;22.08;18.36
48718;BME280;34521;33.042;-96.586;2024-01-10T10:50:57;99071.75;;;21.69;18.54
48718;BME280;34521;33.042;-96.586;2024-01-10T10:53:17;99075.44;;;21.51;18.57
48718;BME280;34521;33.042;-96.586;2024-01-10T10:55:41;99071.42;;;21.58;18.45
48718;BME280;34521;33.042;-96.586;2024-01-10T10:58:06;99070.14;;;20.90;18.93
48718;BME280;34521;33.042;-96.586;2024-01-10T11:00:31;99063.88;;;21.73;18.48
48718;BME280;34521;33.042;-96.586;2024-01-10T11:02:56;99064.99;;;21.97;18.47
48718;BME280;34521;33.042;-96.586;2024-01-10T11:05:23;99063.25;;;22.17;18.29
48718;BME280;34521;33.042;-96.586;2024-01-10T11:07:48;99063.40;;;21.84;18.38
48718;BME280;34521;33.042;-96.586;2024-01-10T11:10:17;99059.94;;;21.21;18.79
48718;BME280;34521;33.042;-96.586;2024-01-10T11:12:55;99061.43;;;21.49;18.48
48718;BME280;34521;33.042;-96.586;2024-01-10T11:15:17;99061.85;;;21.25;18.35
48718;BME280;34521;33.042;-96.586;2024-01-10T11:20:09;99047.72;;;21.58;18.18
48718;BME280;34521;33.042;-96.586;2024-01-10T11:22:34;99043.88;;;21.81;17.88
48718;BME280;34521;33.042;-96.586;2024-01-10T11:24:44;99034.40;;;21.74;17.79
48718;BME280;34521;33.042;-96.586;2024-01-10T11:27:14;99041.18;;;21.92;17.96
48718;BME280;34521;33.042;-96.586;2024-01-10T11:29:37;99042.45;;;21.45;18.31
48718;BME280;34521;33.042;-96.586;2024-01-10T11:32:02;99040.64;;;21.95;18.10
48718;BME280;34521;33.042;-96.586;2024-01-10T11:34:26;99027.57;;;21.59;18.05
48718;BME280;34521;33.042;-96.586;2024-01-10T11:39:20;99031.81;;;21.84;18.11
48718;BME280;34521;33.042;-96.586;2024-01-10T11:41:42;99034.81;;;21.57;18.03
48718;BME280;34521;33.042;-96.586;2024-01-10T11:44:26;99035.55;;;21.83;17.88
48718;BME280;34521;33.042;-96.586;2024-01-10T11:46:34;99028.86;;;21.92;17.86
48718;BME280;34521;33.042;-96.586;2024-01-10T11:48:59;99026.47;;;21.67;18.11
48718;BME280;34521;33.042;-96.586;2024-01-10T11:51:25;99028.46;;;21.38;18.39
48718;BME280;34521;33.042;-96.586;2024-01-10T11:53:53;99021.67;;;22.33;18.05
48718;BME280;34521;33.042;-96.586;2024-01-10T11:56:16;99016.60;;;21.81;18.23
48718;BME280;34521;33.042;-96.586;2024-01-10T12:01:07;99014.81;;;21.74;18.35
48718;BME280;34521;33.042;-96.586;2024-01-10T12:03:34;99014.93;;;21.92;18.22
48718;BME280;34521;33.042;-96.586;2024-01-10T12:06:00;99010.40;;;21.50;18.43
48718;BME280;34521;33.042;-96.586;2024-01-10T12:08:23;99010.85;;;21.54;18.54
48718;BME280;34521;33.042;-96.586;2024-01-10T12:10:49;99004.21;;;21.77;18.32
48718;BME280;34521;33.042;-96.586;2024-01-10T12:13:14;99001.79;;;21.96;18.30
48718;BME280;34521;33.042;-96.586;2024-01-10T12:15:41;99002.96;;;20.81;18.82
48718;BME280;34521;33.042;-96.586;2024-01-10T12:18:08;98994.02;;;21.70;18.23
48718;BME280;34521;33.042;-96.586;2024-01-10T12:20:32;98993.31;;;21.81;18.29
48718;BME280;34521;33.042;-96.586;2024-01-10T12:22:55;98986.51;;;22.05;18.23
48718;BME280;34521;33.042;-96.586;2024-01-10T12:25:20;98982.59;;;22.24;17.99
48718;BME280;34521;33.042;-96.586;2024-01-10T12:27:47;98980.17;;;22.39;17.85
48718;BME280;34521;33.042;-96.586;2024-01-10T12:30:11;98971.52;;;22.37;17.92
48718;BME280;34521;33.042;-96.586;2024-01-10T12:32:36;98970.68;;;22.43;17.93
48718;BME280;34521;33.042;-96.586;2024-01-10T12:35:04;98973.35;;;22.29;17.95
48718;BME280;34521;33.042;-96.586;2024-01-10T12:37:27;98974.63;;;21.74;18.07